Allen, TX

11:31 PM CST on March 01, 2015 (GMT -0600)
Angel Parkway | Change Station
CLOSE
Current Station
Personal Weather Station
Location: Allen, TX
Elevation: 673 ft
Nearby Weather Stations

Elev 673 ft 33.09 °N, 96.62 °W | Updated 6 minutes ago

Overcast
Overcast
35.8 °F
Feels Like 36 °F
N
1.6
Wind Variable Wind from ESE

Today
High -- | Low -- °F
--% Chance of Precip.
Yesterday
High -- | Low -- °F
Precip. -- in
6:54 AM 6:23 PM
Waxing Gibbous, 89% visible
Pressure 30.44 in
Visibility 8.0 miles
Clouds Mostly Cloudy 1000 ft
Overcast 1600 ft
Windchill 36 °F
Dew Point 36 °F
Humidity 99%
Rainfall 0.52 in
Snow Depth Not available.
UV 0 out of 12
Pollen 6.50 out of 12
Air Quality Not available.
Flu Activity Not available.
METAR KTKI 020453Z AUTO 36011KT 8SM BKN010 OVC016 02/01 A3039 RMK AO2 CIG 008V013 SLP307 T00220011

More Conditions Fewer Conditions

Pressure 30.44 in
Visibility 8.0 miles
Clouds Mostly Cloudy 1000 ft
Overcast 1600 ft
Windchill 36 °F
Dew Point 36 °F
Humidity 99%
Rainfall 0.52 in
Snow Depth Not available.
UV 0 out of 12
Pollen 6.50 out of 12
Air Quality Not available.
Flu Activity Not available.
METAR KTKI 020453Z AUTO 36011KT 8SM BKN010 OVC016 02/01 A3039 RMK AO2 CIG 008V013 SLP307 T00220011

More Conditions Fewer Conditions

Nowcast | as of 8:49 PM CST on March 1, 2015

Patchy very light rain or drizzle will continue to develop across most of central and North Texas through the predawn hours Monday. Temperatures will remain above freezing...thus no icing of bridges and overpasses is expected. Patchy light fog is also expected to develop after midnight. Rainfall amounts will be very light and average a trace to a few hundredths. Otherwise...temperatures will remain steady in the 30s to lower 40s across the far southeast. North winds around 10 mph will continue overnight creating wind chills mostly in the 20s and lower 30s.

×

10-Day Weather Forecast

Almanac

Astronomy

Mar. 01, 2015 Rise Set
Actual Time
Civil Twilight
Nautical Twilight
Astronomical Twilight
Moon
Length of Visible Light
Length of Day
Tomorrow will be .
, % of the Moon is Illuminated

Today's Extremes

State Highs State Lows

Community

WunderPhotos

Upload Photos

1,801,731 photos uploaded!

WunderBlogs® & News

Nearby

Air Quality

  Air Quality AQ Index Pollutant
Not available.

Snow Depth

Station Depth Elevation

Earthquake Activity

City Distance Mag. Time & Date
Minimum magnitude displayed is 2.5.

Coastal Water Temperatures

Place Temperature

Nearby Weather Stations